METAR Data
IDs: Format: Raw Decoded Include TAF

Data at: 1254 UTC 23 Sep 2018

KGCD 231235Z AUTO 24004KT 10SM BKN029 BKN036 08/05 A3008 RMK AO2 T00810045
KGCD 231215Z AUTO 25003KT 10SM SCT026 BKN034 08/05 A3008 RMK AO2 T00820045
KGCD 231155Z AUTO 26004KT 10SM SCT034 SCT075 08/04 A3007 RMK AO2 70001 T00750040 10123 20075
KGCD 231135Z AUTO 28006KT 10SM SCT034 08/04 A3007 RMK AO2 T00750040
KGCD 231115Z AUTO 00000KT 10SM CLR 08/04 A3007 RMK AO2 T00820042
KGCD 231055Z AUTO 00000KT 10SM SCT030 SCT050 09/05 A3006 RMK AO2 T00880045
KGCD 231035Z AUTO 26007KT 10SM SCT032 BKN039 BKN050 10/05 A3007 RMK AO2 T00950047
KGCD 231015Z AUTO 28006KT 10SM BKN032 BKN050 10/05 A3006 RMK AO2 T00970049
KGCD 230955Z AUTO 27004KT 10SM BKN030 OVC037 10/05 A3006 RMK AO2 T01000050
KGCD 230935Z AUTO 26006KT 10SM OVC032 10/05 A3006 RMK AO2 T01010050
KGCD 230915Z AUTO 27004KT 10SM BKN032 10/05 A3006 RMK AO2 T01010050
KGCD 230855Z AUTO 26005KT 10SM BKN032 BKN043 10/05 A3006 RMK AO2 T01030049
KGCD 230835Z AUTO 27004KT 10SM SCT035 BKN041 11/05 A3006 RMK AO2 T01050045
KGCD 230815Z AUTO 26009KT 10SM BKN041 11/05 A3006 RMK AO2 T01090047
KGCD 230755Z AUTO 28011G15KT 10SM BKN043 11/05 A3005 RMK AO2 T01100047 402060110
KGCD 230735Z AUTO 27008KT 10SM BKN043 12/05 A3004 RMK AO2 T01170051
KGCD 230715Z AUTO 27006KT 10SM SCT043 12/05 A3003 RMK AO2 T01160054
KGCD 230655Z AUTO 26006KT 10SM CLR 12/06 A3003 RMK AO2 T01160059
KGCD 230635Z AUTO 26004KT 10SM SCT040 12/07 A3002 RMK AO2 T01200067
KGCD 230615Z AUTO 25003KT 10SM BKN038 12/08 A3003 RMK AO2 T01210076
KGCD 230555Z AUTO 25004KT 10SM BKN040 12/08 A3003 RMK AO2 T01230077 10148 20122
KGCD 230535Z AUTO 27003KT 10SM BKN040 13/08 A3003 RMK AO2 T01250079
KGCD 230515Z AUTO 00000KT 10SM BKN036 BKN041 13/09 A3003 RMK AO2 T01310087
KGCD 230455Z AUTO 00000KT 10SM BKN036 13/09 A3003 RMK AO2 T01290089
KGCD 230435Z AUTO 00000KT 10SM OVC036 13/09 A3003 RMK AO2 T01310089
KGCD 230415Z AUTO 00000KT 10SM OVC038 13/09 A3002 RMK AO2 T01310086
KGCD 230355Z AUTO 00000KT 10SM BKN038 13/08 A3003 RMK AO2 T01310082
KGCD 230335Z AUTO 00000KT 10SM SCT038 13/08 A3003 RMK AO2 T01310080
KGCD 230315Z AUTO 00000KT 10SM CLR 13/08 A3002 RMK AO2 T01250078
KGCD 230255Z AUTO 00000KT 10SM CLR 13/07 A3002 RMK AO2 T01340074
KGCD 230235Z AUTO 00000KT 10SM CLR 13/07 A3001 RMK AO2 T01320074
KGCD 230215Z AUTO 23003KT 10SM CLR 13/07 A3001 RMK AO2 T01330074
KGCD 230155Z AUTO 00000KT 10SM CLR 13/08 A3001 RMK AO2 T01340078
KGCD 230135Z AUTO 32003KT 10SM CLR 14/08 A3001 RMK AO2 T01350080
KGCD 230115Z AUTO 27003KT 10SM CLR 14/08 A3001 RMK AO2 T01420076
KGCD 230055Z AUTO 00000KT 10SM CLR 15/07 A3001 RMK AO2 T01480070
KGCD 230035Z AUTO 24004KT 10SM CLR 15/07 A3003 RMK AO2 T01450071
KGCD 230015Z AUTO 27005G09KT 10SM -DZ CLR 15/07 A3005 RMK AO2 T01450071
KGCD 222355Z AUTO 29008KT 10SM -RA CLR 14/09 A3004 RMK AO2 P0001 60001 T01380089 10206 20136
KGCD 222335Z AUTO 26006KT 10SM RA SCT007 15/08 A3004 RMK AO2 T01460082
KGCD 222315Z AUTO 28005KT 10SM CLR 15/08 A3003 RMK AO2 T01500077
KGCD 222255Z AUTO 26004KT 10SM CLR 15/08 A3002 RMK AO2 T01470078
KGCD 222235Z AUTO 27007KT 10SM CLR 15/08 A3003 RMK AO2 T01450079
KGCD 222215Z AUTO 26006KT 10SM CLR 14/08 A3002 RMK AO2 T01400083
KGCD 222155Z AUTO 24007KT 10SM RA CLR 14/08 A3003 RMK AO2 T01390081
KGCD 222135Z AUTO 28010KT 10SM -DZ CLR 15/06 A3003 RMK AO2 T01520061
KGCD 222115Z AUTO 27012KT 10SM CLR 18/03 A3003 RMK AO2 T01770031
KGCD 222055Z AUTO 27010KT 10SM CLR 19/02 A3002 RMK AO2 T01900021
KGCD 222035Z AUTO 29012KT 10SM CLR 20/02 A3002 RMK AO2 T02010021
KGCD 222015Z AUTO 28010KT 10SM CLR 20/02 A3002 RMK AO2 T02010020
KGCD 221955Z AUTO 28011KT 10SM CLR 20/02 A3002 RMK AO2 T02000019
KGCD 221935Z AUTO 29009KT 10SM CLR 20/02 A3002 RMK AO2 T01980019
KGCD 221915Z AUTO 29008KT 10SM CLR 20/02 A3002 RMK AO2 T02010017
KGCD 221855Z AUTO 29007KT 10SM CLR 20/02 A3003 RMK AO2 T01950017
KGCD 221835Z AUTO 30006KT 10SM CLR 19/01 A3003 RMK AO2 T01880012
KGCD 221815Z AUTO 30010KT 10SM CLR 19/01 A3003 RMK AO2 T01930012
KGCD 221755Z AUTO 26004KT 10SM CLR 18/01 A3003 RMK AO2 T01840008 10191 20124
KGCD 221735Z AUTO 22010KT 10SM CLR 19/02 A3003 RMK AO2 T01890020
KGCD 221715Z AUTO 22009KT 10SM CLR 19/02 A3003 RMK AO2 T01910020
KGCD 221655Z AUTO 00000KT 10SM CLR 17/00 A3003 RMK AO2 T01680000
KGCD 221635Z AUTO 10003KT 10SM CLR 16/00 A3002 RMK AO2 T01611005
KGCD 221615Z AUTO 00000KT 10SM CLR 15/M01 A3003 RMK AO2 T01511009
KGCD 221555Z AUTO 00000KT 10SM CLR 16/M01 A3002 RMK AO2 T01561010
KGCD 221535Z AUTO 00000KT 10SM CLR 15/M01 A3002 RMK AO2 T01521010
KGCD 221515Z AUTO 00000KT 10SM CLR 14/M01 A3002 RMK AO2 T01411014
KGCD 221455Z AUTO 00000KT 10SM CLR 14/M02 A3002 RMK AO2 T01361017
KGCD 221435Z AUTO 10003KT 10SM CLR 13/M02 A3001 RMK AO2 T01321020
KGCD 221415Z AUTO 00000KT 10SM CLR 13/M02 A3001 RMK AO2 T01321019
KGCD 221355Z AUTO 00000KT 10SM CLR 13/M02 A3001 RMK AO2 T01261021
KGCD 221335Z AUTO 00000KT 10SM CLR 13/M02 A3001 RMK AO2 T01281023
KGCD 221315Z AUTO 09004KT 10SM CLR 13/M02 A3001 RMK AO2 T01301024
KGCD 221255Z AUTO 11005KT 10SM CLR 13/M02 A3000 RMK AO2 T01311025
KGCD 221235Z AUTO 10006KT 10SM CLR 13/M02 A3000 RMK AO2 T01301025
KGCD 221215Z AUTO 11007KT 10SM CLR 13/M02 A3000 RMK AO2 T01301025
KGCD 221155Z AUTO 08005KT 10SM CLR 13/M03 A3000 RMK AO2 T01311026 10193 20123
KGCD 221135Z AUTO 11007KT 10SM CLR 13/M03 A3000 RMK AO2 T01311029
KGCD 221115Z AUTO 10007KT 10SM CLR 13/M03 A3000 RMK AO2 T01321030
KGCD 221055Z AUTO 12007KT 10SM CLR 13/M03 A3000 RMK AO2 T01311032
KGCD 221035Z AUTO 13008KT 10SM CLR 13/M03 A3000 RMK AO2 T01341031
KGCD 221015Z AUTO 11004KT 10SM CLR 13/M03 A3000 RMK AO2 T01341035
KGCD 220955Z AUTO 00000KT 10SM CLR 15/M03 A3000 RMK AO2 T01461027
KGCD 220935Z AUTO 00000KT 10SM CLR 15/M02 A3000 RMK AO2 T01461024
KGCD 220915Z AUTO 00000KT 10SM CLR 12/M04 A3001 RMK AO2 T01241040
KGCD 220855Z AUTO 12004KT 10SM CLR 13/M04 A3001 RMK AO2 T01321039
KGCD 220835Z AUTO 00000KT 10SM CLR 13/M04 A3000 RMK AO2 T01331040
KGCD 220815Z AUTO 10005KT 10SM CLR 13/M04 A3000 RMK AO2 T01301043
KGCD 220755Z AUTO 00000KT 10SM CLR 14/M04 A3000 RMK AO2 T01351043 402820061
KGCD 220735Z AUTO 00000KT 10SM CLR 17/M02 A3000 RMK AO2 T01731021
KGCD 220715Z AUTO 20003KT 10SM CLR 19/M02 A3000 RMK AO2 T01861021
KGCD 220655Z AUTO 22003KT 10SM CLR 19/M02 A3001 RMK AO2 T01851020
KGCD 220635Z AUTO 20003KT 10SM CLR 18/M02 A3001 RMK AO2 T01831021
KGCD 220615Z AUTO 00000KT 10SM CLR 19/M02 A3001 RMK AO2 T01881019
KGCD 220555Z AUTO 22003KT 10SM CLR 19/M02 A3000 RMK AO2 T01861023 10275 20177
KGCD 220535Z AUTO 23004KT 10SM CLR 18/M03 A3000 RMK AO2 T01791026
KGCD 220515Z AUTO 23004KT 10SM CLR 19/M03 A3000 RMK AO2 T01861034
KGCD 220455Z AUTO 25003KT 10SM CLR 19/M04 A2999 RMK AO2 T01931041
KGCD 220435Z AUTO 29005KT 10SM CLR 20/M05 A2999 RMK AO2 T01991048
KGCD 220415Z AUTO 26006KT 10SM CLR 21/M05 A2998 RMK AO2 T02071051
KGCD 220355Z AUTO 25008KT 10SM CLR 22/M05 A2997 RMK AO2 T02201052
KGCD 220335Z AUTO 25008KT 10SM CLR 22/M06 A2996 RMK AO2 T02211065
KGCD 220315Z AUTO 17008KT 10SM CLR 23/M07 A2994 RMK AO2 T02311067
KGCD 220255Z AUTO 17009KT 10SM CLR 24/M07 A2995 RMK AO2 T02361067
KGCD 220235Z AUTO 17008KT 10SM CLR 24/M07 A2995 RMK AO2 T02381068
KGCD 220215Z AUTO 18009KT 10SM CLR 24/M07 A2995 RMK AO2 T02431068
KGCD 220155Z AUTO 19009KT 10SM CLR 24/M07 A2995 RMK AO2 T02401069
KGCD 220135Z AUTO 20008KT 10SM CLR 24/M07 A2995 RMK AO2 T02381073
KGCD 220115Z AUTO 20007KT 10SM CLR 25/M07 A2995 RMK AO2 T02501074
KGCD 220055Z AUTO 22006KT 10SM CLR 26/M08 A2995 RMK AO2 T02551078